Time;durP1;ratioP1;P1;durP2;ratioP2;P2;SDS_P1;SDS_P2;PMS_P1;PMS_P2;Temp;Humidity;BMP_temperature;BMP_pressure;BME280_temperature;BME280_humidity;BME280_pressure;Samples;Min_cycle;Max_cycle;Signal;HPM_P1;HPM_P2
2023/01/26 00:01:30;;;;;;;3.07;2.97;;;;;;;2.08;86.79;95793.69;4325820;33;20348;-62
2023/01/26 00:03:59;;;;;;;4.00;3.60;;;;;;;2.26;86.15;95777.84;4327555;32;20293;-62
2023/01/26 00:06:26;;;;;;;4.57;3.27;;;;;;;1.99;87.03;95786.16;4308588;32;20312;-62
2023/01/26 00:08:56;;;;;;;2.77;2.67;;;;;;;1.94;87.46;95780.00;4285242;33;20270;-62
2023/01/26 00:11:25;;;;;;;4.40;4.10;;;;;;;1.91;88.11;95778.66;4289329;33;20286;-62
2023/01/26 00:13:52;;;;;;;2.60;2.50;;;;;;;2.10;87.34;95773.28;4288599;33;20377;-62
2023/01/26 00:16:20;;;;;;;3.70;3.40;;;;;;;1.89;87.98;95772.84;4320375;33;20287;-63
2023/01/26 00:18:47;;;;;;;2.47;2.37;;;;;;;2.26;86.83;95767.38;4321598;32;20308;-64
2023/01/26 00:21:17;;;;;;;3.10;2.80;;;;;;;2.31;85.92;95763.03;4324876;32;20284;-63
2023/01/26 00:23:42;;;;;;;3.53;3.33;;;;;;;2.23;86.00;95755.56;4312088;32;20271;-63
2023/01/26 00:26:12;;;;;;;3.67;3.43;;;;;;;2.25;86.28;95753.50;4294647;33;20360;-63
2023/01/26 00:28:39;;;;;;;4.57;4.23;;;;;;;2.02;87.12;95749.09;4293980;33;20249;-63
2023/01/26 00:31:11;;;;;;;2.80;2.27;;;;;;;2.14;87.49;95751.69;4307213;33;20354;-63
2023/01/26 00:33:37;;;;;;;2.67;2.57;;;;;;;2.37;86.04;95756.88;4294902;33;20298;-63
2023/01/26 00:36:03;;;;;;;3.23;2.87;;;;;;;2.41;85.68;95752.00;4325729;32;20305;-63
2023/01/26 00:38:29;;;;;;;2.77;2.67;;;;;;;2.40;85.46;95747.78;4336549;32;20233;-63
2023/01/26 00:40:54;;;;;;;3.03;2.87;;;;;;;2.01;86.48;95757.97;4330814;32;20274;-63
2023/01/26 00:43:20;;;;;;;3.03;2.93;;;;;;;2.01;86.92;95749.31;4328554;32;20181;-63
2023/01/26 00:45:45;;;;;;;3.43;3.13;;;;;;;2.00;87.04;95748.53;4328680;32;20189;-63
2023/01/26 00:48:11;;;;;;;2.10;2.00;;;;;;;2.26;86.15;95744.62;4329035;32;20190;-63
2023/01/26 00:50:36;;;;;;;3.00;2.80;;;;;;;2.30;85.46;95747.56;4317398;32;20228;-62
2023/01/26 00:53:01;;;;;;;3.03;2.67;;;;;;;1.80;87.65;95745.47;4328088;32;20205;-62
2023/01/26 00:55:31;;;;;;;4.27;3.97;;;;;;;2.02;87.89;95749.09;4331170;33;20224;-62
2023/01/26 00:57:58;;;;;;;3.10;2.90;;;;;;;2.10;87.28;95745.31;4328623;32;20190;-63
2023/01/26 01:00:23;;;;;;;2.70;2.60;;;;;;;2.21;86.20;95743.72;4329615;32;20282;-62
2023/01/26 01:02:49;;;;;;;7.77;5.43;;;;;;;2.14;85.81;95741.22;4322063;33;20376;-62
2023/01/26 01:05:14;;;;;;;6.13;3.27;;;;;;;1.87;87.14;95734.88;4324561;33;20202;-62
2023/01/26 01:07:39;;;;;;;2.20;2.10;;;;;;;2.06;87.16;95733.72;4324515;33;20239;-62
2023/01/26 01:10:05;;;;;;;3.57;3.30;;;;;;;2.17;86.41;95734.72;4327539;33;20220;-62
2023/01/26 01:12:30;;;;;;;3.60;3.30;;;;;;;2.15;86.67;95728.94;4328290;32;20216;-62
2023/01/26 01:14:56;;;;;;;2.80;2.70;;;;;;;2.29;86.21;95730.25;4330684;33;20264;-63
2023/01/26 01:17:21;;;;;;;3.07;2.97;;;;;;;1.95;87.10;95731.91;4327138;32;20190;-62
2023/01/26 01:19:46;;;;;;;3.40;3.13;;;;;;;1.94;87.72;95730.31;4332483;32;20190;-62
2023/01/26 01:22:11;;;;;;;3.80;3.60;;;;;;;1.51;88.52;95739.28;4338374;32;20251;-62
2023/01/26 01:24:37;;;;;;;1.77;1.77;;;;;;;1.62;88.92;95737.72;4332069;33;20208;-62
2023/01/26 01:27:02;;;;;;;3.93;3.73;;;;;;;1.67;88.84;95736.00;4328831;33;20204;-62
2023/01/26 01:29:27;;;;;;;3.00;2.90;;;;;;;1.62;88.38;95730.69;4340717;33;20194;-62
2023/01/26 01:31:53;;;;;;;3.90;3.50;;;;;;;1.86;88.24;95743.75;4315548;33;20195;-62
2023/01/26 01:34:18;;;;;;;2.67;2.47;;;;;;;1.90;87.45;95731.78;4329027;33;20257;-62
2023/01/26 01:36:44;;;;;;;4.27;3.97;;;;;;;2.08;87.09;95736.88;4321994;33;20205;-62
2023/01/26 01:39:09;;;;;;;4.10;3.80;;;;;;;2.00;86.74;95732.81;4342078;32;20268;-62
2023/01/26 01:41:35;;;;;;;3.43;3.23;;;;;;;1.94;87.10;95728.50;4341625;32;20229;-62
2023/01/26 01:44:21;;;;;;;3.40;3.20;;;;;;;2.11;86.74;95727.78;4340532;32;20181;-63
2023/01/26 01:47:00;;;;;;;8.03;2.87;;;;;;;1.98;86.37;95729.62;4343241;32;20200;-63
2023/01/26 01:49:33;;;;;;;3.77;3.57;;;;;;;1.87;87.66;95735.66;4322183;32;20277;-63
2023/01/26 01:52:16;;;;;;;2.47;2.37;;;;;;;1.91;87.66;95730.78;4352334;32;20315;-63
2023/01/26 01:55:07;;;;;;;4.43;4.17;;;;;;;1.77;88.47;95730.22;4318722;33;20296;-63
2023/01/26 01:57:45;;;;;;;2.10;2.00;;;;;;;1.89;88.32;95733.59;4319113;33;20279;-63
2023/01/26 02:00:17;;;;;;;3.57;3.37;;;;;;;1.42;88.97;95739.87;4321732;33;20293;-63
2023/01/26 02:03:09;;;;;;;2.87;2.77;;;;;;;1.49;89.57;95719.63;4325268;33;20329;-63
2023/01/26 02:05:32;;;;;;;3.03;2.87;;;;;;;1.59;88.91;95722.47;4317515;33;20294;-63
2023/01/26 02:08:00;;;;;;;4.97;2.87;;;;;;;1.45;88.90;95734.97;4335190;32;20298;-63
2023/01/26 02:10:26;;;;;;;2.83;2.73;;;;;;;1.49;88.58;95728.25;4333481;32;20356;-62
2023/01/26 02:12:59;;;;;;;3.13;2.63;;;;;;;1.78;88.21;95716.13;4344820;32;20293;-62
2023/01/26 02:15:25;;;;;;;4.20;3.97;;;;;;;1.79;87.80;95711.69;4331816;32;20282;-63
2023/01/26 02:17:52;;;;;;;2.20;2.10;;;;;;;1.75;87.74;95713.16;4317687;33;20290;-63
2023/01/26 02:20:39;;;;;;;2.77;2.57;;;;;;;1.71;87.63;95715.44;4320679;33;20217;-62
2023/01/26 02:23:21;;;;;;;3.07;2.97;;;;;;;1.52;87.52;95716.56;4313424;32;20300;-62
2023/01/26 02:25:50;;;;;;;2.70;2.27;;;;;;;1.52;88.17;95713.94;4331994;32;20333;-62
2023/01/26 02:28:17;;;;;;;1.53;1.53;;;;;;;1.48;87.60;95710.19;4322383;32;20319;-63
2023/01/26 02:30:42;;;;;;;2.03;1.93;;;;;;;1.54;87.31;95711.91;4333651;32;20295;-62
2023/01/26 02:33:20;;;;;;;2.00;1.83;;;;;;;1.68;87.10;95695.75;4317088;33;20394;-63
2023/01/26 02:35:46;;;;;;;3.83;3.33;;;;;;;1.68;86.16;95687.91;4317354;33;20202;-63
2023/01/26 02:38:17;;;;;;;3.10;2.90;;;;;;;1.49;86.98;95686.44;4320264;32;20269;-63
2023/01/26 02:40:49;;;;;;;2.73;2.53;;;;;;;1.70;86.85;95685.06;4317313;33;20185;-62
2023/01/26 02:43:14;;;;;;;3.13;2.80;;;;;;;1.60;87.49;95684.88;4328792;32;20367;-63
2023/01/26 02:45:41;;;;;;;2.20;2.13;;;;;;;1.86;87.28;95673.94;4330317;33;20287;-62
2023/01/26 02:48:07;;;;;;;3.63;3.33;;;;;;;1.89;86.88;95675.28;4316099;33;20201;-63
2023/01/26 02:50:33;;;;;;;2.93;2.77;;;;;;;1.84;87.08;95669.97;4319762;32;20348;-62
2023/01/26 02:52:59;;;;;;;3.60;3.50;;;;;;;1.43;88.04;95661.22;4324751;33;20301;-63
2023/01/26 02:55:25;;;;;;;3.33;3.07;;;;;;;1.56;88.27;95657.59;4314962;33;20282;-63
2023/01/26 02:57:59;;;;;;;3.10;2.90;;;;;;;1.79;88.00;95664.63;4330361;32;20236;-63
2023/01/26 03:00:28;;;;;;;3.47;3.17;;;;;;;1.72;87.55;95656.87;4321484;33;20286;-63
2023/01/26 03:02:57;;;;;;;6.47;3.97;;;;;;;1.91;87.18;95655.72;4332483;32;20328;-62
2023/01/26 03:05:22;;;;;;;2.93;2.80;;;;;;;1.80;87.22;95655.75;4320452;33;20282;-62
2023/01/26 03:07:48;;;;;;;2.73;2.53;;;;;;;1.89;86.83;95651.72;4308338;33;20282;-62
2023/01/26 03:10:15;;;;;;;4.90;4.60;;;;;;;1.65;87.39;95649.19;4329230;33;20217;-62
2023/01/26 03:12:41;;;;;;;3.00;2.87;;;;;;;1.65;87.93;95648.37;4312092;32;20207;-63
2023/01/26 03:27:25;;;;;;;3.50;3.30;;;;;;;1.82;86.93;95638.00;4319909;32;20251;-63
2023/01/26 03:28:53;;;;;;;3.00;2.90;;;;;;;1.28;89.30;95635.53;4329484;32;20309;-63
2023/01/26 03:31:18;;;;;;;2.53;2.43;;;;;;;1.31;89.10;95634.28;4316632;32;20365;-63
2023/01/26 03:33:44;;;;;;;3.53;3.23;;;;;;;1.56;88.26;95634.06;4324360;33;20248;-63
2023/01/26 03:36:10;;;;;;;3.43;2.60;;;;;;;1.35;88.62;95628.38;4316673;33;20216;-63
2023/01/26 03:38:36;;;;;;;3.63;3.47;;;;;;;1.30;88.88;95637.91;4330317;33;20212;-63
2023/01/26 03:57:23;;;;;;;2.17;2.07;;;;;;;1.14;88.45;95636.78;4322831;32;20325;-63
2023/01/26 03:59:49;;;;;;;4.53;1.90;;;;;;;1.18;88.90;95631.91;4322987;32;20309;-62
2023/01/26 04:10:26;;;;;;;2.50;2.40;;;;;;;1.32;88.00;95630.66;4329597;32;20336;-63
2023/01/26 04:23:50;;;;;;;3.10;2.87;;;;;;;1.74;86.06;95620.84;4333151;32;21927;-62
2023/01/26 04:26:15;;;;;;;3.17;3.07;;;;;;;1.58;86.45;95632.81;4343881;32;20274;-62
2023/01/26 04:28:41;;;;;;;3.30;3.20;;;;;;;1.69;85.95;95616.28;4340321;32;20290;-62
2023/01/26 04:31:06;;;;;;;4.10;3.27;;;;;;;1.47;87.08;95619.72;4342205;32;20185;-62
2023/01/26 04:33:32;;;;;;;2.80;2.27;;;;;;;1.42;87.07;95615.22;4336751;32;20177;-62
2023/01/26 04:36:03;;;;;;;4.03;3.77;;;;;;;1.49;87.42;95617.69;4331657;32;20321;-63
2023/01/26 04:38:28;;;;;;;2.63;2.53;;;;;;;1.01;89.24;95606.47;4341100;32;20189;-62
2023/01/26 04:40:54;;;;;;;2.70;2.60;;;;;;;0.99;89.50;95624.16;4327830;33;20297;-62
2023/01/26 04:43:19;;;;;;;5.23;2.87;;;;;;;0.96;89.65;95619.41;4334035;32;20257;-63
2023/01/26 04:45:56;;;;;;;2.03;2.00;;;;;;;0.83;89.81;95613.59;4336229;32;20245;-62
2023/01/26 04:48:22;;;;;;;5.43;4.00;;;;;;;1.06;89.27;95608.38;4332373;32;20182;-62
2023/01/26 04:50:53;;;;;;;2.47;2.37;;;;;;;0.99;88.89;95607.72;4327725;33;20286;-62
2023/01/26 04:53:18;;;;;;;9.53;3.60;;;;;;;1.26;88.49;95608.84;4340065;32;20185;-62
2023/01/26 04:55:43;;;;;;;2.10;2.00;;;;;;;1.21;88.03;95608.75;4327964;33;20329;-62
2023/01/26 04:58:11;;;;;;;3.23;3.10;;;;;;;1.44;87.46;95607.94;4338426;32;20225;-62
2023/01/26 05:00:36;;;;;;;2.07;1.97;;;;;;;1.61;86.57;95602.81;4332496;33;20186;-63
2023/01/26 05:03:01;;;;;;;1.87;1.57;;;;;;;1.37;86.95;95599.41;4337302;32;20273;-63
2023/01/26 05:05:27;;;;;;;2.77;2.67;;;;;;;0.93;87.77;95619.03;4335579;33;20189;-62
2023/01/26 05:07:52;;;;;;;3.17;3.00;;;;;;;1.06;88.56;95613.59;4343825;33;20257;-62
2023/01/26 05:10:18;;;;;;;2.57;2.47;;;;;;;1.28;88.43;95606.78;4329943;33;20273;-62
2023/01/26 05:12:43;;;;;;;4.10;3.73;;;;;;;1.48;87.56;95616.09;4330257;32;20200;-62
2023/01/26 05:15:09;;;;;;;1.83;1.83;;;;;;;1.61;87.22;95606.22;4333226;33;20213;-62
2023/01/26 05:17:35;;;;;;;4.33;3.10;;;;;;;1.51;86.96;95613.81;4321443;32;20185;-62
2023/01/26 05:20:00;;;;;;;2.13;2.03;;;;;;;1.66;86.90;95614.12;4317398;33;20182;-62
2023/01/26 05:22:26;;;;;;;1.77;1.67;;;;;;;1.69;86.41;95611.06;4342682;32;20293;-62
2023/01/26 05:24:51;;;;;;;2.83;2.73;;;;;;;1.83;85.65;95622.09;4327061;32;20181;-62
2023/01/26 05:27:19;;;;;;;2.57;2.37;;;;;;;1.78;85.01;95614.12;4329009;32;20204;-62
2023/01/26 05:29:45;;;;;;;2.03;1.93;;;;;;;2.00;84.71;95609.88;4341699;33;20181;-62
2023/01/26 05:32:12;;;;;;;1.90;1.90;;;;;;;1.88;84.65;95609.09;4343887;32;20300;-63
2023/01/26 05:34:37;;;;;;;2.50;2.40;;;;;;;1.98;84.55;95603.28;4327245;32;20197;-62
2023/01/26 05:37:03;;;;;;;3.03;2.83;;;;;;;1.86;84.81;95605.16;4343817;32;20285;-62
2023/01/26 05:39:28;;;;;;;1.83;1.83;;;;;;;1.81;84.61;95611.06;4329343;33;20178;-63
2023/01/26 05:41:55;;;;;;;2.63;2.53;;;;;;;1.87;84.50;95604.88;4314210;33;20312;-62
2023/01/26 05:44:21;;;;;;;8.93;1.63;;;;;;;2.08;83.99;95610.53;4314950;33;20204;-63
2023/01/26 05:46:46;;;;;;;2.83;2.63;;;;;;;1.90;83.47;95607.03;4333901;32;20369;-63
2023/01/26 05:49:12;;;;;;;2.10;2.00;;;;;;;1.88;84.47;95600.44;4327368;33;20190;-63
2023/01/26 05:51:37;;;;;;;2.37;2.27;;;;;;;2.08;83.72;95611.31;4340873;32;20234;-62
2023/01/26 05:54:03;;;;;;;1.80;1.70;;;;;;;1.76;84.70;95612.78;4342125;32;20240;-63
2023/01/26 05:56:28;;;;;;;1.83;1.83;;;;;;;1.73;84.50;95614.03;4340137;32;20205;-63
2023/01/26 05:58:53;;;;;;;1.73;1.63;;;;;;;1.56;84.49;95619.16;4319462;32;20198;-62
2023/01/26 06:01:18;;;;;;;2.07;1.97;;;;;;;1.63;85.09;95616.44;4333509;32;20256;-61
2023/01/26 06:03:44;;;;;;;2.10;2.03;;;;;;;1.75;84.53;95611.97;4315377;33;20190;-62
2023/01/26 06:06:11;;;;;;;3.50;3.30;;;;;;;1.57;85.47;95614.72;4327873;33;20221;-61
2023/01/26 06:08:37;;;;;;;3.63;3.43;;;;;;;1.67;85.38;95617.53;4329110;33;20185;-62
2023/01/26 06:11:02;;;;;;;1.97;1.87;;;;;;;1.52;86.14;95627.69;4328138;33;20278;-62
2023/01/26 06:13:28;;;;;;;2.50;2.40;;;;;;;1.58;85.91;95629.41;4317653;33;20224;-62
2023/01/26 06:15:54;;;;;;;2.60;2.40;;;;;;;1.52;85.70;95625.06;4330746;32;20249;-62
2023/01/26 06:18:19;;;;;;;2.80;2.57;;;;;;;1.82;84.96;95625.72;4330333;33;20529;-63
2023/01/26 06:20:44;;;;;;;2.30;2.10;;;;;;;1.91;84.52;95619.09;4345576;32;20193;-64
2023/01/26 06:23:10;;;;;;;2.47;2.37;;;;;;;1.88;84.91;95616.94;4345623;32;20204;-64
2023/01/26 06:25:38;;;;;;;3.37;3.17;;;;;;;2.01;83.85;95616.69;4331815;32;20177;-64
2023/01/26 06:28:05;;;;;;;3.90;3.10;;;;;;;1.56;85.27;95618.37;4331315;32;20288;-64
2023/01/26 06:30:33;;;;;;;3.23;3.03;;;;;;;1.73;84.25;95614.03;4345091;32;20277;-64
2023/01/26 06:32:58;;;;;;;2.00;1.90;;;;;;;1.42;85.78;95627.47;4342466;32;20262;-64
2023/01/26 06:35:23;;;;;;;3.47;3.27;;;;;;;1.69;85.07;95621.53;4337999;32;20327;-63
2023/01/26 06:37:50;;;;;;;2.83;2.63;;;;;;;1.92;82.96;95618.06;4346968;32;20228;-64
2023/01/26 06:40:15;;;;;;;1.60;1.60;;;;;;;1.63;84.01;95619.84;4331954;32;20182;-65
2023/01/26 06:42:49;;;;;;;1.57;1.57;;;;;;;1.79;83.63;95620.16;4331090;32;20282;-64
2023/01/26 06:45:15;;;;;;;1.93;1.63;;;;;;;1.84;83.35;95621.06;4323496;32;20212;-64
2023/01/26 06:47:45;;;;;;;1.27;1.27;;;;;;;1.81;83.32;95620.72;4331364;32;20374;-64
2023/01/26 06:50:17;;;;;;;2.70;2.60;;;;;;;1.67;84.24;95620.16;4344546;32;20308;-64
2023/01/26 06:52:46;;;;;;;3.03;2.67;;;;;;;1.73;84.70;95620.03;4345840;32;20273;-64
2023/01/26 06:55:21;;;;;;;1.67;1.67;;;;;;;1.89;83.69;95615.12;4329266;32;20301;-64
2023/01/26 06:57:46;;;;;;;2.43;2.33;;;;;;;1.79;83.60;95602.66;4330786;32;20277;-63
2023/01/26 07:00:13;;;;;;;3.30;3.07;;;;;;;1.77;84.67;95607.31;4332038;32;20406;-64
2023/01/26 07:02:39;;;;;;;1.43;1.33;;;;;;;1.61;84.75;95608.81;4324009;32;20185;-64
2023/01/26 07:05:05;;;;;;;2.80;2.67;;;;;;;1.79;84.09;95602.66;4344863;32;20300;-65
2023/01/26 07:07:30;;;;;;;3.57;3.20;;;;;;;1.69;84.25;95605.84;4333511;32;20178;-65
2023/01/26 07:09:56;;;;;;;3.00;2.50;;;;;;;1.74;84.50;95602.53;4345344;32;20190;-64
2023/01/26 07:12:21;;;;;;;2.57;2.17;;;;;;;1.98;83.34;95601.47;4343297;32;20246;-64
2023/01/26 07:14:46;;;;;;;3.57;3.37;;;;;;;1.64;84.66;95607.56;4330838;32;20216;-64
2023/01/26 07:17:12;;;;;;;5.90;2.87;;;;;;;1.35;86.33;95607.47;4341856;32;20204;-60
2023/01/26 07:19:37;;;;;;;1.53;1.43;;;;;;;4.83;100.00;95593.91;4342469;32;20182;-60
2023/01/26 07:22:03;;;;;;;1.47;1.47;;;;;;;6.35;100.00;95591.38;4330700;32;20260;-60
2023/01/26 07:24:29;;;;;;;0.60;0.60;;;;;;;7.07;88.23;95590.38;4326656;32;20185;-60
2023/01/26 07:26:54;;;;;;;4.73;1.73;;;;;;;8.15;73.85;95600.47;4328370;32;20271;-60
2023/01/26 07:29:20;;;;;;;1.07;1.07;;;;;;;8.65;66.42;95593.38;4325912;32;21579;-60
2023/01/26 07:31:45;;;;;;;0.90;0.90;;;;;;;8.90;63.48;95595.87;4343118;32;20247;-60
2023/01/26 07:34:11;;;;;;;1.40;1.40;;;;;;;9.37;61.45;95591.78;4344238;32;20181;-60
2023/01/26 07:36:36;;;;;;;1.50;1.40;;;;;;;9.83;59.08;95591.34;4342907;32;20231;-60
2023/01/26 07:39:02;;;;;;;0.80;0.80;;;;;;;9.97;57.37;95602.84;4343792;32;20204;-59
2023/01/26 07:41:27;;;;;;;1.40;1.40;;;;;;;10.21;55.22;95594.91;4330398;32;20193;-60
2023/01/26 07:43:55;;;;;;;2.40;1.63;;;;;;;9.74;54.72;95596.47;4326978;32;20182;-60
2023/01/26 07:46:20;;;;;;;1.87;1.77;;;;;;;10.28;55.37;95590.84;4314939;32;20307;-60
2023/01/26 07:48:45;;;;;;;1.23;1.23;;;;;;;10.69;70.17;95590.31;4328812;32;20190;-60
2023/01/26 07:51:11;;;;;;;1.20;1.20;;;;;;;11.01;70.93;95582.38;4326262;32;20212;-60
2023/01/26 07:53:38;;;;;;;1.50;1.50;;;;;;;11.06;62.20;95584.19;4340665;32;20215;-60
2023/01/26 07:56:15;;;;;;;1.43;1.30;;;;;;;9.01;53.37;95596.56;4325540;32;20200;-61
2023/01/26 07:58:41;;;;;;;2.40;1.87;;;;;;;7.73;56.43;95590.31;4314533;32;20189;-61
2023/01/26 08:01:09;;;;;;;3.70;2.07;;;;;;;6.18;60.13;95596.06;4339017;32;20196;-60
2023/01/26 08:03:35;;;;;;;1.97;1.80;;;;;;;4.76;66.45;95608.31;4334709;32;20169;-61
2023/01/26 08:06:01;;;;;;;0.57;0.57;;;;;;;4.44;68.30;95603.00;4324919;32;20372;-64
2023/01/26 08:08:27;;;;;;;1.53;1.43;;;;;;;4.28;69.45;95604.66;4343903;32;20208;-61
2023/01/26 08:10:56;;;;;;;1.67;1.40;;;;;;;4.00;70.84;95597.78;4343937;32;20181;-61
2023/01/26 08:13:21;;;;;;;2.40;1.77;;;;;;;3.92;71.74;95592.97;4343755;32;20253;-61
2023/01/26 08:15:46;;;;;;;2.73;2.13;;;;;;;3.41;73.35;95586.28;4341985;32;20292;-61
2023/01/26 08:18:12;;;;;;;1.47;1.40;;;;;;;3.14;75.66;95583.53;4335020;32;20212;-62
2023/01/26 08:20:37;;;;;;;1.73;1.63;;;;;;;3.22;74.92;95590.19;4341621;32;20183;-62
2023/01/26 08:23:02;;;;;;;0.90;0.90;;;;;;;3.25;75.35;95589.72;4343323;32;20181;-61
2023/01/26 08:25:27;;;;;;;2.37;2.20;;;;;;;3.23;75.18;95586.53;4331917;32;20185;-61
2023/01/26 08:27:53;;;;;;;1.50;1.10;;;;;;;3.07;76.20;95585.53;4342640;32;20181;-61
2023/01/26 08:30:19;;;;;;;3.03;2.70;;;;;;;3.35;74.69;95580.16;4329351;32;20193;-62
2023/01/26 08:32:44;;;;;;;2.50;2.30;;;;;;;3.00;75.81;95577.81;4330487;32;20177;-63
2023/01/26 08:35:09;;;;;;;1.13;1.13;;;;;;;3.18;75.59;95576.78;4330262;32;20213;-61
2023/01/26 08:37:35;;;;;;;2.40;2.20;;;;;;;3.08;76.37;95579.25;4332496;32;20184;-62
2023/01/26 08:40:00;;;;;;;3.17;1.73;;;;;;;2.78;76.92;95581.41;4345824;32;20257;-61
2023/01/26 08:42:25;;;;;;;2.30;1.77;;;;;;;2.82;77.27;95585.12;4342644;32;20181;-62
2023/01/26 08:44:51;;;;;;;1.23;1.23;;;;;;;3.03;76.34;95581.81;4330368;32;20276;-62
2023/01/26 08:47:16;;;;;;;0.80;0.80;;;;;;;3.17;75.92;95579.63;4343489;32;20192;-62
2023/01/26 08:49:42;;;;;;;1.97;1.87;;;;;;;3.27;74.92;95575.34;4322278;32;20182;-61
2023/01/26 08:52:07;;;;;;;2.70;2.47;;;;;;;3.17;75.40;95574.41;4343313;32;20198;-61
2023/01/26 08:54:32;;;;;;;1.77;1.77;;;;;;;3.16;75.61;95581.47;4329775;32;20185;-61
2023/01/26 08:56:58;;;;;;;2.00;1.90;;;;;;;3.07;75.70;95577.69;4322459;32;20207;-62
2023/01/26 08:59:23;;;;;;;0.63;0.63;;;;;;;3.31;74.49;95579.09;4335670;32;20185;-60
2023/01/26 09:01:48;;;;;;;2.00;1.90;;;;;;;3.37;73.59;95577.31;4328038;32;20193;-61
2023/01/26 09:04:15;;;;;;;2.43;2.33;;;;;;;3.09;75.35;95573.78;4343753;32;20216;-61
2023/01/26 09:06:40;;;;;;;2.30;2.20;;;;;;;3.23;74.71;95576.06;4319706;32;20217;-62
2023/01/26 09:09:08;;;;;;;3.57;3.27;;;;;;;2.76;77.12;95584.25;4342977;32;20265;-62
2023/01/26 09:11:34;;;;;;;2.40;2.30;;;;;;;2.68;78.28;95574.97;4327778;32;20181;-62
2023/01/26 09:13:59;;;;;;;2.77;2.60;;;;;;;2.81;77.90;95575.69;4334057;32;20316;-67
2023/01/26 09:16:26;;;;;;;3.47;3.03;;;;;;;2.56;79.04;95574.22;4312325;32;20196;-65
2023/01/26 09:18:52;;;;;;;4.67;4.07;;;;;;;2.38;80.45;95582.31;4334152;32;20268;-65
2023/01/26 09:21:18;;;;;;;3.57;3.37;;;;;;;1.82;82.67;95578.66;4323140;32;20300;-68
2023/01/26 09:23:44;;;;;;;3.03;2.93;;;;;;;2.37;80.98;95578.09;4318247;32;20278;-67
2023/01/26 09:26:10;;;;;;;3.50;3.30;;;;;;;2.58;79.69;95584.47;4322615;32;20292;-68
2023/01/26 09:28:36;;;;;;;2.43;2.33;;;;;;;2.30;80.20;95577.44;4338402;32;20187;-66
2023/01/26 09:31:03;;;;;;;2.80;2.60;;;;;;;2.45;80.33;95580.34;4304670;32;20288;-64
2023/01/26 09:33:30;;;;;;;1.83;1.83;;;;;;;1.92;81.56;95586.69;4319745;32;20216;-68
2023/01/26 09:36:03;;;;;;;7.17;3.30;;;;;;;2.08;81.50;95591.16;4310353;33;20325;-66
2023/01/26 09:38:30;;;;;;;2.53;2.43;;;;;;;2.62;79.98;95586.38;4319893;32;20278;-67
2023/01/26 09:41:02;;;;;;;3.60;3.40;;;;;;;2.45;80.27;95588.19;4316139;32;20297;-68
2023/01/26 09:43:47;;;;;;;3.57;3.27;;;;;;;2.32;81.19;95583.22;4325996;32;20262;-65
2023/01/26 09:46:49;;;;;;;3.57;3.23;;;;;;;2.38;80.82;95585.72;4331540;32;20273;-65
2023/01/26 09:49:20;;;;;;;3.50;3.30;;;;;;;2.71;80.89;95586.78;4345039;32;20335;-67
2023/01/26 09:51:52;;;;;;;3.60;3.30;;;;;;;2.93;79.34;95581.63;4332609;32;20323;-67
2023/01/26 09:54:37;;;;;;;2.10;2.00;;;;;;;3.36;76.32;95587.00;4324037;32;20275;-67
2023/01/26 09:57:13;;;;;;;2.00;1.93;;;;;;;3.21;76.49;95588.59;4318240;33;20353;-65
2023/01/26 09:59:49;;;;;;;2.43;2.37;;;;;;;2.99;77.53;95581.47;4339896;32;20344;-65
2023/01/26 10:02:34;;;;;;;10.30;2.40;;;;;;;3.09;77.36;95578.22;4324081;32;20300;-65
2023/01/26 10:05:06;;;;;;;3.37;3.17;;;;;;;3.25;76.21;95568.75;4314169;32;20274;-66
2023/01/26 10:07:33;;;;;;;3.47;3.27;;;;;;;3.27;76.76;95577.97;4290481;32;20343;-66
2023/01/26 10:09:59;;;;;;;3.73;2.63;;;;;;;2.89;77.52;95572.69;4336731;32;20278;-65
2023/01/26 10:12:33;;;;;;;4.50;4.20;;;;;;;2.71;78.02;95577.09;4316608;32;20274;-65
2023/01/26 10:15:15;;;;;;;3.07;2.87;;;;;;;2.94;78.08;95570.13;4342827;32;20181;-66
2023/01/26 10:17:44;;;;;;;3.50;3.30;;;;;;;2.65;79.06;95569.41;4330934;32;20321;-66
2023/01/26 10:20:32;;;;;;;2.00;1.90;;;;;;;2.26;80.43;95571.91;4292485;32;20303;-65
2023/01/26 10:23:06;;;;;;;1.87;1.77;;;;;;;2.36;80.09;95571.28;4290562;33;20291;-67
2023/01/26 10:25:38;;;;;;;2.13;2.07;;;;;;;2.41;79.98;95572.16;4300874;32;20282;-65
2023/01/26 10:28:27;;;;;;;3.70;3.50;;;;;;;2.64;79.73;95573.06;4314371;33;20309;-63
2023/01/26 10:30:53;;;;;;;5.73;2.90;;;;;;;2.48;79.46;95564.16;4326838;33;20375;-67
2023/01/26 10:33:41;;;;;;;3.90;3.57;;;;;;;2.75;78.45;95559.88;4329620;32;20294;-68
2023/01/26 10:36:09;;;;;;;5.60;1.87;;;;;;;2.65;77.63;95557.13;4289065;33;20205;-66
2023/01/26 10:38:34;;;;;;;2.53;2.43;;;;;;;2.30;79.26;95559.13;4304658;33;20305;-64
2023/01/26 10:41:02;;;;;;;3.33;3.23;;;;;;;2.36;80.02;95555.56;4315783;33;20278;-67
2023/01/26 10:43:28;;;;;;;3.23;3.10;;;;;;;2.49;79.50;95544.81;4307027;33;20220;-64
2023/01/26 10:45:53;;;;;;;2.77;2.67;;;;;;;2.37;79.92;95552.72;4305794;33;20291;-63
2023/01/26 10:48:25;;;;;;;2.93;2.83;;;;;;;2.42;79.96;95554.62;4328074;33;20268;-63
2023/01/26 10:50:52;;;;;;;4.67;4.37;;;;;;;2.54;78.91;95550.09;4328522;33;20229;-63
2023/01/26 10:53:28;;;;;;;2.53;2.20;;;;;;;2.50;78.85;95554.22;4311393;33;20291;-63
2023/01/26 10:56:02;;;;;;;2.03;2.03;;;;;;;2.47;78.48;95552.09;4298296;32;20382;-63
2023/01/26 10:58:48;;;;;;;3.47;3.30;;;;;;;2.50;78.17;95562.09;4308741;33;20288;-63
2023/01/26 11:01:17;;;;;;;2.77;2.67;;;;;;;2.66;77.88;95548.22;4295037;33;20282;-63
2023/01/26 11:04:07;;;;;;;2.97;2.77;;;;;;;2.49;78.78;95544.03;4311584;33;20341;-63
2023/01/26 11:06:34;;;;;;;3.00;2.90;;;;;;;2.11;80.27;95548.06;4319254;32;20282;-63
2023/01/26 11:09:16;;;;;;;2.70;2.60;;;;;;;2.52;79.30;95540.91;4300369;33;20303;-63
2023/01/26 11:11:54;;;;;;;2.87;2.77;;;;;;;2.46;79.25;95540.03;4292531;33;20298;-65
2023/01/26 11:14:19;;;;;;;3.37;3.07;;;;;;;2.68;78.92;95533.09;4281236;33;20374;-65
2023/01/26 11:16:59;;;;;;;4.63;4.30;;;;;;;2.55;78.89;95535.19;4291570;33;20283;-65
2023/01/26 11:20:01;;;;;;;4.50;2.57;;;;;;;2.22;79.57;95535.97;4297474;32;20197;-65
2023/01/26 11:23:03;;;;;;;3.73;2.67;;;;;;;2.25;80.13;95544.16;4283226;33;20367;-64
2023/01/26 11:25:47;;;;;;;3.90;3.50;;;;;;;2.20;79.55;95540.63;4304188;33;20274;-64
2023/01/26 11:32:05;;;;;;;2.33;2.23;;;;;;;2.08;81.42;95544.09;4308112;32;20288;-64
2023/01/26 11:34:49;;;;;;;3.37;3.07;;;;;;;2.08;81.03;95544.09;4282541;33;20305;-66
2023/01/26 11:37:30;;;;;;;3.67;2.47;;;;;;;2.16;80.90;95540.31;4328156;33;20274;-64
2023/01/26 11:40:10;;;;;;;3.57;3.17;;;;;;;1.97;81.26;95537.09;4306749;33;20286;-64
2023/01/26 11:43:13;;;;;;;2.13;2.03;;;;;;;1.78;81.10;95530.47;4296805;33;20357;-64
2023/01/26 11:46:16;;;;;;;4.03;2.87;;;;;;;1.89;81.14;95528.81;4307311;33;20304;-64
2023/01/26 11:49:05;;;;;;;3.00;2.80;;;;;;;2.17;79.82;95530.62;4298483;32;20292;-64
2023/01/26 11:52:02;;;;;;;1.43;1.43;;;;;;;2.29;79.71;95524.31;4312649;33;20428;-64
2023/01/26 11:55:01;;;;;;;4.07;3.70;;;;;;;2.33;79.18;95529.84;4274507;33;20287;-64
2023/01/26 11:57:49;;;;;;;2.37;2.27;;;;;;;2.32;79.26;95523.03;4312208;32;20270;-68
2023/01/26 12:00:48;;;;;;;3.17;2.97;;;;;;;2.35;78.23;95525.19;4301363;33;20298;-71
2023/01/26 12:03:24;;;;;;;2.17;2.07;;;;;;;2.16;79.02;95529.03;4258107;33;20315;-67
2023/01/26 12:06:06;;;;;;;2.53;2.33;;;;;;;2.19;78.22;95518.09;4271795;33;20295;-67
2023/01/26 12:08:45;;;;;;;3.17;2.87;;;;;;;1.64;80.56;95514.25;4277345;33;20300;-67
2023/01/26 12:11:32;;;;;;;2.83;2.73;;;;;;;1.74;81.13;95518.87;4285787;33;20280;-66
2023/01/26 12:14:07;;;;;;;6.63;3.13;;;;;;;2.05;80.46;95507.16;4282570;33;20294;-66
2023/01/26 12:16:41;;;;;;;1.93;1.83;;;;;;;2.25;79.40;95499.66;4284808;33;20329;-68
2023/01/26 12:19:33;;;;;;;2.10;2.00;;;;;;;2.18;79.78;95517.31;4326426;32;20356;-71
2023/01/26 12:22:08;;;;;;;1.63;1.53;;;;;;;2.18;80.28;95509.47;4329320;32;20274;-70
2023/01/26 12:24:42;;;;;;;2.07;1.97;;;;;;;2.33;79.51;95509.72;4327685;32;20282;-68
2023/01/26 12:27:16;;;;;;;2.70;2.57;;;;;;;1.96;80.12;95501.50;4334435;32;20290;-68
2023/01/26 12:30:10;;;;;;;3.57;3.27;;;;;;;2.04;80.67;95500.34;4309242;32;20296;-69
2023/01/26 12:32:36;;;;;;;2.27;2.17;;;;;;;1.97;81.29;95495.25;4338213;32;20289;-69
2023/01/26 12:35:02;;;;;;;1.57;1.57;;;;;;;2.20;80.60;95490.91;4331648;32;20308;-66
2023/01/26 12:37:46;;;;;;;8.53;6.37;;;;;;;2.06;80.55;95486.00;4322446;32;20282;-68
2023/01/26 12:40:46;;;;;;;4.47;4.10;;;;;;;2.03;80.62;95494.31;4334522;32;20251;-67
2023/01/26 12:43:23;;;;;;;7.40;6.37;;;;;;;2.00;79.98;95494.78;4329367;32;20343;-69
2023/01/26 12:45:52;;;;;;;1.97;1.87;;;;;;;2.16;79.03;95495.03;4332641;32;20360;-72